createdAt,value
2023-04-17T00:02:04.955Z,12
2023-04-17T00:04:35.643Z,12
2023-04-17T00:07:08.474Z,12
2023-04-17T00:09:39.286Z,12
2023-04-17T00:12:10.566Z,12
2023-04-17T00:14:41.936Z,12
2023-04-17T00:17:12.926Z,12
2023-04-17T00:19:43.652Z,12
2023-04-17T00:22:14.778Z,16
2023-04-17T00:24:45.815Z,12
2023-04-17T00:27:17.309Z,12
2023-04-17T00:29:48.121Z,15
2023-04-17T00:32:19.576Z,15
2023-04-17T00:34:50.395Z,12
2023-04-17T00:37:21.121Z,12
2023-04-17T00:39:51.714Z,13
2023-04-17T00:42:22.130Z,12
2023-04-17T00:44:52.881Z,12
2023-04-17T00:47:23.767Z,12
2023-04-17T00:49:54.771Z,13
2023-04-17T00:52:25.838Z,12
2023-04-17T00:54:57.275Z,12
2023-04-17T00:57:28.172Z,12
2023-04-17T00:59:59.540Z,12
2023-04-17T01:02:30.430Z,16
2023-04-17T01:05:01.159Z,12
2023-04-17T01:07:32.304Z,16
2023-04-17T01:10:03.069Z,21
2023-04-17T01:12:33.570Z,24
2023-04-17T01:15:04.402Z,24
2023-04-17T01:17:33.841Z,24
2023-04-17T01:20:04.470Z,24
2023-04-17T01:22:35.053Z,24
2023-04-17T01:25:06.058Z,24
2023-04-17T01:27:36.438Z,24
2023-04-17T01:30:07.992Z,24
2023-04-17T01:32:38.463Z,24
2023-04-17T01:35:10.065Z,24
2023-04-17T01:37:41.134Z,24
2023-04-17T01:40:12.427Z,24
2023-04-17T01:42:43.483Z,24
2023-04-17T01:45:13.926Z,24
2023-04-17T01:47:45.267Z,24
2023-04-17T01:50:16.177Z,25
2023-04-17T01:52:47.213Z,24
2023-04-17T01:55:18.421Z,24
2023-04-17T01:57:50.209Z,24
2023-04-17T02:00:21.315Z,24
2023-04-17T02:02:52.913Z,24
2023-04-17T02:05:23.761Z,28
2023-04-17T02:07:54.761Z,25
2023-04-17T02:10:25.645Z,24
2023-04-17T02:12:56.659Z,24
2023-04-17T02:15:27.696Z,24
2023-04-17T02:17:58.593Z,24
2023-04-17T02:20:29.435Z,24
2023-04-17T02:23:00.601Z,24
2023-04-17T02:25:31.059Z,24
2023-04-17T02:28:01.728Z,24
2023-04-17T02:30:32.420Z,24
2023-04-17T02:33:04.300Z,20
2023-04-17T02:35:35.557Z,23
2023-04-17T02:38:06.665Z,24
2023-04-17T02:40:37.621Z,24
2023-04-17T02:43:09.359Z,24
2023-04-17T02:45:40.022Z,24
2023-04-17T02:48:10.874Z,24
2023-04-17T02:50:41.764Z,23
2023-04-17T02:53:12.841Z,23
2023-04-17T02:55:44.557Z,24
2023-04-17T02:58:16.029Z,24
2023-04-17T03:00:46.680Z,24
2023-04-17T03:03:17.765Z,24
2023-04-17T03:05:49.051Z,23
2023-04-17T03:08:20.766Z,24
2023-04-17T03:10:51.900Z,20
2023-04-17T03:13:22.750Z,24
2023-04-17T03:15:53.797Z,23
2023-04-17T03:18:34.524Z,24
2023-04-17T03:21:05.187Z,24
2023-04-17T03:23:37.018Z,24
2023-04-17T03:26:08.533Z,24
2023-04-17T03:28:39.456Z,24
2023-04-17T03:31:11.013Z,24
2023-04-17T03:33:42.144Z,23
2023-04-17T03:36:13.050Z,24
2023-04-17T03:38:44.072Z,24
2023-04-17T03:41:15.638Z,24
2023-04-17T03:43:46.773Z,24
2023-04-17T03:46:17.793Z,24
2023-04-17T03:48:49.743Z,24
2023-04-17T03:51:21.033Z,24
2023-04-17T03:53:52.109Z,24
2023-04-17T03:56:23.833Z,24
2023-04-17T03:58:54.824Z,24
2023-04-17T04:01:25.754Z,24
2023-04-17T04:03:56.813Z,24
2023-04-17T04:06:27.259Z,24
2023-04-17T04:08:58.229Z,24
2023-04-17T04:11:27.785Z,24
2023-04-17T04:13:58.993Z,28
2023-04-17T04:16:29.838Z,24
2023-04-17T04:19:00.712Z,28
2023-04-17T04:21:32.131Z,28
2023-04-17T04:24:03.724Z,28
2023-04-17T04:26:34.436Z,27
2023-04-17T04:29:06.248Z,25
2023-04-17T04:31:37.000Z,24
2023-04-17T04:34:08.122Z,28
2023-04-17T04:36:40.024Z,28
2023-04-17T04:39:11.465Z,28
2023-04-17T04:41:42.553Z,27
2023-04-17T04:44:14.481Z,25
2023-04-17T04:46:44.769Z,28
2023-04-17T04:49:14.253Z,28
2023-04-17T04:51:51.682Z,28
2023-04-17T04:54:22.592Z,28
2023-04-17T04:56:53.577Z,28
2023-04-17T04:59:24.819Z,28
2023-04-17T05:01:59.453Z,28
2023-04-17T05:04:30.148Z,28
2023-04-17T05:07:00.664Z,28
2023-04-17T05:09:31.801Z,28
2023-04-17T05:12:02.571Z,28
2023-04-17T05:14:33.500Z,28
2023-04-17T05:17:04.265Z,28
2023-04-17T05:19:35.550Z,28
2023-04-17T05:22:06.327Z,28
2023-04-17T05:24:37.620Z,28
2023-04-17T05:27:09.123Z,28
2023-04-17T05:29:39.982Z,28
2023-04-17T05:34:47.534Z,28
2023-04-17T05:37:18.456Z,28
2023-04-17T05:39:48.981Z,28
2023-04-17T05:42:19.591Z,28
2023-04-17T05:44:50.901Z,28
2023-04-17T05:47:21.972Z,28
2023-04-17T05:49:53.010Z,31
2023-04-17T05:52:24.318Z,31
2023-04-17T05:54:55.158Z,28
2023-04-17T05:57:26.118Z,28
2023-04-17T05:59:56.911Z,28
2023-04-17T06:02:27.771Z,32
2023-04-17T06:04:59.050Z,28
2023-04-17T06:07:29.310Z,28
2023-04-17T06:10:00.008Z,28
2023-04-17T06:12:30.727Z,28
2023-04-17T06:15:02.200Z,28
2023-04-17T06:17:32.586Z,28
2023-04-17T06:20:03.071Z,24
2023-04-17T06:22:34.690Z,28
2023-04-17T06:25:05.530Z,28
2023-04-17T06:27:37.157Z,28
2023-04-17T06:30:07.755Z,28
2023-04-17T06:32:44.236Z,28
2023-04-17T06:35:14.820Z,28
2023-04-17T06:43:02.320Z,32
2023-04-17T06:45:33.968Z,29
2023-04-17T06:48:08.745Z,28
2023-04-17T06:50:40.046Z,28
2023-04-17T06:53:14.297Z,30
2023-04-17T06:55:45.132Z,32
2023-04-17T06:58:16.626Z,28
2023-04-17T07:00:47.527Z,28
2023-04-17T07:03:18.641Z,28
2023-04-17T07:05:49.986Z,28
2023-04-17T07:08:21.444Z,28
2023-04-17T07:10:52.251Z,28
2023-04-17T07:13:26.296Z,28
2023-04-17T07:15:57.042Z,28
2023-04-17T07:18:35.640Z,28
2023-04-17T07:24:11.681Z,28
2023-04-17T07:26:50.889Z,28
2023-04-17T07:29:21.625Z,28
2023-04-17T07:31:54.230Z,28
2023-04-17T07:34:26.452Z,24
2023-04-17T07:36:59.136Z,27
2023-04-17T07:39:32.411Z,32
2023-04-17T07:42:03.253Z,28
2023-04-17T07:44:34.104Z,30
2023-04-17T07:47:06.032Z,28
2023-04-17T07:49:36.438Z,32
2023-04-17T07:52:09.481Z,28
2023-04-17T07:54:40.523Z,32
2023-04-17T07:57:16.264Z,34
2023-04-17T07:59:47.292Z,28
2023-04-17T08:02:16.348Z,28
2023-04-17T08:04:47.218Z,28
2023-04-17T08:07:18.451Z,24
2023-04-17T08:09:49.534Z,24
2023-04-17T08:12:20.668Z,20
2023-04-17T08:14:52.648Z,19
2023-04-17T08:17:23.492Z,16
2023-04-17T08:20:04.249Z,16
2023-04-17T08:22:41.034Z,15
2023-04-17T08:25:12.499Z,18
2023-04-17T08:27:43.762Z,13
2023-04-17T08:30:16.306Z,16
2023-04-17T08:32:48.350Z,16
2023-04-17T08:35:18.684Z,15
2023-04-17T08:37:50.260Z,12
2023-04-17T08:40:24.431Z,12
2023-04-17T08:42:57.254Z,13
2023-04-17T08:45:27.936Z,16
2023-04-17T08:47:58.416Z,16
2023-04-17T08:50:34.940Z,24
2023-04-17T08:53:08.565Z,20
2023-04-17T08:55:39.224Z,20
2023-04-17T08:58:13.107Z,20
2023-04-17T09:00:46.043Z,18
2023-04-17T09:03:17.345Z,20
2023-04-17T09:05:58.879Z,23
2023-04-17T09:08:29.287Z,16
2023-04-17T09:11:00.399Z,20
2023-04-17T09:13:30.862Z,20
2023-04-17T09:16:01.580Z,19
2023-04-17T09:18:33.532Z,17
2023-04-17T09:21:06.764Z,12
2023-04-17T09:23:40.544Z,12
2023-04-17T09:26:10.591Z,12
2023-04-17T09:28:41.275Z,8
2023-04-17T09:31:12.469Z,12
2023-04-17T09:33:53.157Z,12
2023-04-17T09:36:25.824Z,12
2023-04-17T09:38:56.018Z,12
2023-04-17T09:41:29.488Z,12
2023-04-17T09:44:00.625Z,10
2023-04-17T09:46:31.316Z,8
2023-04-17T09:49:01.967Z,16
2023-04-17T09:51:32.404Z,12
2023-04-17T09:54:04.099Z,8
2023-04-17T09:56:34.584Z,20
2023-04-17T09:59:05.900Z,10
2023-04-17T10:01:36.063Z,10
2023-04-17T10:04:06.649Z,12
2023-04-17T10:06:37.697Z,12
2023-04-17T10:09:08.122Z,12
2023-04-17T10:11:40.052Z,12
2023-04-17T10:14:10.940Z,12
2023-04-17T10:16:40.993Z,12
2023-04-17T10:19:11.073Z,12
2023-04-17T10:21:41.192Z,16
2023-04-17T10:24:15.849Z,8
2023-04-17T10:26:46.494Z,12
2023-04-17T10:29:17.585Z,12
2023-04-17T10:31:47.850Z,15
2023-04-17T10:34:18.498Z,15
2023-04-17T10:36:50.819Z,13
2023-04-17T10:39:22.963Z,16
2023-04-17T10:41:53.789Z,24
2023-04-17T10:44:25.754Z,12
2023-04-17T10:47:03.093Z,27
2023-04-17T10:49:42.597Z,16
2023-04-17T10:52:14.088Z,12
2023-04-17T10:54:44.610Z,12
2023-04-17T10:57:19.172Z,16
2023-04-17T10:59:53.519Z,12
2023-04-17T11:02:24.864Z,20
2023-04-17T11:04:59.113Z,8
2023-04-17T11:07:29.688Z,12
2023-04-17T11:10:00.689Z,8
2023-04-17T11:12:40.006Z,8
2023-04-17T11:15:10.451Z,8
2023-04-17T11:17:41.454Z,12
2023-04-17T11:20:17.196Z,8
2023-04-17T11:22:47.423Z,8
2023-04-17T11:25:18.094Z,8
2023-04-17T11:27:48.777Z,12
2023-04-17T11:30:18.682Z,11
2023-04-17T11:32:48.772Z,12
2023-04-17T11:35:19.758Z,8
2023-04-17T11:37:54.457Z,16
2023-04-17T11:40:27.705Z,12
2023-04-17T11:42:58.993Z,8
2023-04-17T11:45:29.509Z,10
2023-04-17T11:48:03.931Z,12
2023-04-17T11:50:35.135Z,12
2023-04-17T11:53:11.297Z,12
2023-04-17T11:55:41.750Z,12
2023-04-17T11:58:12.583Z,12
2023-04-17T12:00:43.314Z,10
2023-04-17T12:03:17.395Z,12
2023-04-17T12:05:47.700Z,12
2023-04-17T12:08:19.509Z,12
2023-04-17T12:10:51.192Z,10
2023-04-17T12:13:21.577Z,12
2023-04-17T12:16:00.744Z,12
2023-04-17T12:18:31.507Z,16
2023-04-17T12:21:02.194Z,19
2023-04-17T12:23:32.731Z,12
2023-04-17T12:26:06.953Z,16
2023-04-17T12:28:38.764Z,12
2023-04-17T12:31:09.036Z,20
2023-04-17T12:33:40.653Z,12
2023-04-17T12:36:13.497Z,16
2023-04-17T12:38:44.269Z,20
2023-04-17T12:41:17.642Z,16
2023-04-17T12:43:52.861Z,12
2023-04-17T12:46:23.462Z,12
2023-04-17T12:49:00.313Z,12
2023-04-17T12:51:34.878Z,16
2023-04-17T12:54:05.321Z,12
2023-04-17T12:56:35.461Z,12
2023-04-17T12:59:06.395Z,12
2023-04-17T13:01:37.214Z,16
2023-04-17T13:04:07.379Z,15
2023-04-17T13:06:37.629Z,12
2023-04-17T13:09:07.774Z,12
2023-04-17T13:11:38.074Z,24
2023-04-17T13:14:11.955Z,16
2023-04-17T13:16:42.171Z,12
2023-04-17T13:19:19.298Z,20
2023-04-17T13:21:54.460Z,12
2023-04-17T13:24:24.525Z,20
2023-04-17T13:26:55.127Z,20
2023-04-17T13:29:25.654Z,12
2023-04-17T13:31:57.532Z,16
2023-04-17T13:34:29.537Z,16
2023-04-17T13:37:00.733Z,22
2023-04-17T13:39:30.852Z,8
2023-04-17T13:42:01.024Z,12
2023-04-17T13:44:31.947Z,16
2023-04-17T13:47:01.863Z,19
2023-04-17T13:49:32.842Z,12
2023-04-17T13:52:05.788Z,12
2023-04-17T13:54:36.504Z,12
2023-04-17T13:57:07.170Z,16
2023-04-17T13:59:37.445Z,24
2023-04-17T14:02:08.062Z,20
2023-04-17T14:04:38.609Z,16
2023-04-17T14:07:09.111Z,17
2023-04-17T14:09:39.636Z,20
2023-04-17T14:12:10.423Z,12
2023-04-17T14:14:42.641Z,12
2023-04-17T14:17:14.329Z,12
2023-04-17T14:19:44.654Z,12
2023-04-17T14:22:14.956Z,13
2023-04-17T14:24:47.252Z,11
2023-04-17T14:27:18.625Z,12
2023-04-17T14:29:49.216Z,16
2023-04-17T14:32:28.847Z,12
2023-04-17T14:35:00.456Z,16
2023-04-17T14:37:32.236Z,12
2023-04-17T14:40:02.611Z,9
2023-04-17T14:42:40.950Z,20
2023-04-17T14:45:04.751Z,12
2023-04-17T14:47:36.994Z,10
2023-04-17T14:50:07.349Z,9
2023-04-17T14:52:37.718Z,12
2023-04-17T14:55:08.153Z,12
2023-04-17T14:57:38.353Z,9
2023-04-17T15:00:09.337Z,12
2023-04-17T15:02:42.937Z,12
2023-04-17T15:05:16.244Z,12
2023-04-17T15:07:46.586Z,13
2023-04-17T15:10:18.777Z,12
2023-04-17T15:12:49.236Z,16
2023-04-17T15:15:23.362Z,13
2023-04-17T15:17:53.823Z,12
2023-04-17T15:20:24.874Z,12
2023-04-17T15:22:55.593Z,12
2023-04-17T15:25:29.816Z,12
2023-04-17T15:28:04.397Z,10
2023-04-17T15:30:35.149Z,12
2023-04-17T15:33:09.191Z,8
2023-04-17T15:35:39.125Z,12
2023-04-17T15:38:09.364Z,12
2023-04-17T15:40:43.790Z,10
2023-04-17T15:43:14.104Z,8
2023-04-17T15:45:47.210Z,8
2023-04-17T15:48:17.247Z,8
2023-04-17T15:50:47.579Z,12
2023-04-17T15:53:18.126Z,12
2023-04-17T15:55:48.857Z,12
2023-04-17T15:58:22.574Z,8
2023-04-17T16:00:53.052Z,12
2023-04-17T16:03:25.617Z,12
2023-04-17T16:05:58.969Z,8
2023-04-17T16:08:33.540Z,12
2023-04-17T16:11:04.003Z,12
2023-04-17T16:13:34.281Z,12
2023-04-17T16:16:08.438Z,12
2023-04-17T16:18:39.276Z,10
2023-04-17T16:21:10.500Z,8
2023-04-17T16:23:42.428Z,12
2023-04-17T16:26:13.284Z,12
2023-04-17T16:28:44.166Z,8
2023-04-17T16:31:25.020Z,10
2023-04-17T16:33:55.351Z,12
2023-04-17T16:36:27.370Z,12
2023-04-17T16:38:57.696Z,16
2023-04-17T16:41:31.272Z,14
2023-04-17T16:44:02.130Z,16
2023-04-17T16:46:51.988Z,20
2023-04-17T16:49:17.572Z,15
2023-04-17T16:51:48.342Z,24
2023-04-17T16:54:19.052Z,20
2023-04-17T16:56:49.809Z,24
2023-04-17T16:59:20.041Z,29
2023-04-17T17:01:50.806Z,20
2023-04-17T17:04:20.707Z,12
2023-04-17T17:06:54.064Z,21
2023-04-17T17:09:27.974Z,20
2023-04-17T17:11:58.208Z,20
2023-04-17T17:14:28.786Z,16
2023-04-17T17:16:59.268Z,12
2023-04-17T17:19:30.588Z,20
2023-04-17T17:22:00.765Z,12
2023-04-17T17:24:32.056Z,8
2023-04-17T17:27:00.731Z,14
2023-04-17T17:29:32.674Z,16
2023-04-17T17:32:08.377Z,20
2023-04-17T17:34:38.502Z,15
2023-04-17T17:37:08.956Z,16
2023-04-17T17:39:42.298Z,20
2023-04-17T17:42:12.724Z,20
2023-04-17T17:44:43.950Z,17
2023-04-17T17:47:14.357Z,24
2023-04-17T17:49:44.556Z,24
2023-04-17T17:52:18.241Z,16
2023-04-17T17:54:48.823Z,20
2023-04-17T17:57:20.393Z,16
2023-04-17T17:59:51.068Z,16
2023-04-17T18:02:23.360Z,16
2023-04-17T18:04:55.536Z,16
2023-04-17T18:07:27.965Z,28
2023-04-17T18:09:59.479Z,16
2023-04-17T18:12:30.510Z,26
2023-04-17T18:15:01.511Z,28
2023-04-17T18:17:31.817Z,20
2023-04-17T18:20:01.187Z,19
2023-04-17T18:22:32.514Z,19
2023-04-17T18:25:07.066Z,16
2023-04-17T18:27:37.247Z,13
2023-04-17T18:30:09.576Z,16
2023-04-17T18:32:41.079Z,16
2023-04-17T18:35:14.151Z,20
2023-04-17T18:37:44.631Z,23
2023-04-17T18:40:18.184Z,17
2023-04-17T18:42:48.653Z,17
2023-04-17T18:45:19.695Z,24
2023-04-17T18:47:52.244Z,8
2023-04-17T18:50:22.400Z,15
2023-04-17T18:52:53.769Z,12
2023-04-17T18:55:27.891Z,16
2023-04-17T18:57:58.331Z,15
2023-04-17T19:00:29.526Z,21
2023-04-17T19:03:00.283Z,15
2023-04-17T19:05:30.557Z,20
2023-04-17T19:08:01.084Z,20
2023-04-17T19:10:31.249Z,13
2023-04-17T19:13:05.655Z,13
2023-04-17T19:15:37.050Z,12
2023-04-17T19:18:10.143Z,16
2023-04-17T19:20:40.670Z,12
2023-04-17T19:23:11.374Z,20
2023-04-17T19:25:41.756Z,20
2023-04-17T19:28:14.147Z,16
2023-04-17T19:30:46.045Z,16
2023-04-17T19:33:15.781Z,19
2023-04-17T19:35:52.296Z,12
2023-04-17T19:38:23.791Z,21
2023-04-17T19:40:54.181Z,12
2023-04-17T19:43:24.562Z,12
2023-04-17T19:45:54.531Z,20
2023-04-17T19:48:25.629Z,12
2023-04-17T19:50:55.699Z,16
2023-04-17T19:53:28.383Z,24
2023-04-17T19:55:58.862Z,16
2023-04-17T19:58:28.745Z,15
2023-04-17T20:01:02.080Z,16
2023-04-17T20:03:32.764Z,16
2023-04-17T20:06:03.437Z,16
2023-04-17T20:08:36.667Z,20
2023-04-17T20:11:14.008Z,12
2023-04-17T20:13:44.308Z,12
2023-04-17T20:16:15.236Z,12
2023-04-17T20:18:45.997Z,13
2023-04-17T20:21:19.287Z,16
2023-04-17T20:23:53.183Z,8
2023-04-17T20:26:23.604Z,8
2023-04-17T20:28:53.832Z,8
2023-04-17T20:31:25.146Z,8
2023-04-17T20:33:59.153Z,12
2023-04-17T20:36:29.057Z,16
2023-04-17T20:39:00.985Z,8
2023-04-17T20:41:31.498Z,7
2023-04-17T20:44:02.910Z,7
2023-04-17T20:46:33.500Z,8
2023-04-17T20:49:04.179Z,4
2023-04-17T20:51:34.337Z,5
2023-04-17T20:54:04.401Z,4
2023-04-17T20:56:43.881Z,4
2023-04-17T20:59:13.990Z,8
2023-04-17T21:01:44.551Z,4
2023-04-17T21:04:16.188Z,4
2023-04-17T21:06:46.230Z,4
2023-04-17T21:09:20.498Z,4
2023-04-17T21:11:53.122Z,4
2023-04-17T21:14:23.810Z,4
2023-04-17T21:16:54.421Z,4
2023-04-17T21:19:24.775Z,4
2023-04-17T21:21:55.969Z,4
2023-04-17T21:24:26.488Z,4
2023-04-17T21:26:57.055Z,4
2023-04-17T21:29:29.962Z,6
2023-04-17T21:32:01.523Z,4
2023-04-17T21:34:33.322Z,4
2023-04-17T21:37:08.794Z,4
2023-04-17T21:39:43.229Z,4
2023-04-17T21:42:13.702Z,2
2023-04-17T21:44:43.909Z,4
2023-04-17T21:47:17.264Z,4
2023-04-17T21:49:47.633Z,0
2023-04-17T21:52:21.559Z,4
2023-04-17T21:54:53.372Z,4
2023-04-17T21:57:30.042Z,4
2023-04-17T22:00:00.504Z,1
2023-04-17T22:02:40.231Z,4
2023-04-17T22:05:10.729Z,4
2023-04-17T22:07:54.106Z,0
2023-04-17T22:10:20.636Z,4
2023-04-17T22:12:52.827Z,0
2023-04-17T22:15:23.584Z,0
2023-04-17T22:18:00.586Z,4
2023-04-17T22:20:31.282Z,0
2023-04-17T22:23:07.689Z,4
2023-04-17T22:25:37.995Z,4
2023-04-17T22:28:08.130Z,4
2023-04-17T22:30:41.711Z,4
2023-04-17T22:33:12.741Z,2
2023-04-17T22:35:43.297Z,3
2023-04-17T22:38:26.291Z,4
2023-04-17T22:40:57.243Z,4
2023-04-17T22:43:27.907Z,1
2023-04-17T22:45:58.686Z,0
2023-04-17T22:48:29.513Z,4
2023-04-17T22:50:59.863Z,4
2023-04-17T22:53:29.742Z,4
2023-04-17T22:56:01.090Z,4
2023-04-17T22:58:31.647Z,4
2023-04-17T23:01:04.537Z,4
2023-04-17T23:03:39.243Z,4
2023-04-17T23:06:10.973Z,4
2023-04-17T23:08:41.411Z,4
2023-04-17T23:11:12.170Z,2
2023-04-17T23:13:42.675Z,0
2023-04-17T23:16:17.411Z,0
2023-04-17T23:18:50.920Z,0
2023-04-17T23:21:22.418Z,0
2023-04-17T23:23:52.815Z,1
2023-04-17T23:26:23.493Z,4
2023-04-17T23:28:54.412Z,0
2023-04-17T23:31:25.357Z,4
2023-04-17T23:33:56.494Z,4
2023-04-17T23:36:26.905Z,0
2023-04-17T23:38:57.788Z,3
2023-04-17T23:41:27.886Z,0
2023-04-17T23:43:58.615Z,0
2023-04-17T23:46:28.998Z,0
2023-04-17T23:48:59.656Z,0
2023-04-17T23:51:30.498Z,4
2023-04-17T23:54:01.028Z,0
2023-04-17T23:56:31.526Z,0
2023-04-17T23:59:01.610Z,4
